Drayton, North Dakota
Current Conditions -  °F | °C
As of 3:15 PM on Sunday 23 Nov 2014 (Local Time) from KGAF Reporting Station
Haze Haze  
Wind Chill:   Ceiling: 800
Heat Index: 23°   Visibility: 6mi
Dew Point: 23°   Wind: 20mph
Humidity: 100%   Direction: 340°NNW
Pressure: 29.48"   Gusts: 25mph
Location:  48.57°N, 97.18°W
Report Text: KGAF 232115Z AUTO 34017G22KT 6SM BR OVC008 M05/M05 A2948 RMK AO2
Loading
Personal Weather Stations






























Interactive Weather Map New forecast layout! Learn more

10-Day Weather Forecast

Advertisements
Track Severe Weather on mobile